createdAt,value
2022-09-18T06:12:07.309Z,3.85
2022-09-18T06:14:33.990Z,3.50
2022-09-18T06:17:00.540Z,3.28
2022-09-18T06:19:28.506Z,3.15
2022-09-18T06:21:55.096Z,3.03
2022-09-18T06:24:21.666Z,3.20
2022-09-18T06:26:48.555Z,2.72
2022-09-18T06:29:15.205Z,2.90
2022-09-18T06:31:41.789Z,2.92
2022-09-18T06:34:08.388Z,2.97
2022-09-18T06:36:36.380Z,2.75
2022-09-18T06:39:03.147Z,2.20
2022-09-18T06:41:29.890Z,2.90
2022-09-18T06:43:56.467Z,2.70
2022-09-18T06:46:23.046Z,2.78
2022-09-18T06:48:49.631Z,2.50
2022-09-18T06:51:16.248Z,2.35
2022-09-18T06:53:44.189Z,2.50
2022-09-18T06:56:10.767Z,2.60
2022-09-18T06:58:37.384Z,2.85
2022-09-18T07:01:04.307Z,2.67
2022-09-18T07:03:30.924Z,2.80
2022-09-18T07:05:57.582Z,3.03
2022-09-18T07:08:24.233Z,2.90
2022-09-18T07:10:52.337Z,2.80
2022-09-18T07:13:18.983Z,2.70
2022-09-18T07:15:46.653Z,2.72
2022-09-18T07:18:13.332Z,2.80
2022-09-18T07:20:39.980Z,3.22
2022-09-18T07:23:06.550Z,2.80
2022-09-18T07:25:33.233Z,3.30
2022-09-18T07:28:04.952Z,2.72
2022-09-18T07:30:31.531Z,3.05
2022-09-18T07:32:58.097Z,3.05
2022-09-18T07:35:24.755Z,3.15
2022-09-18T07:37:51.315Z,2.90
2022-09-18T07:40:18.231Z,3.17
2022-09-18T07:42:44.885Z,2.75
2022-09-18T07:45:12.904Z,2.67
2022-09-18T07:47:39.489Z,2.80
2022-09-18T07:50:06.638Z,2.28
2022-09-18T07:52:33.215Z,2.60
2022-09-18T07:54:59.798Z,2.63
2022-09-18T07:57:26.388Z,2.60
2022-09-18T07:59:52.960Z,2.60
2022-09-18T08:02:21.066Z,2.75
2022-09-18T08:04:47.796Z,3.30
2022-09-18T08:07:14.378Z,3.38
2022-09-18T08:09:40.954Z,2.85
2022-09-18T08:12:07.676Z,3.40
2022-09-18T08:14:34.248Z,3.20
2022-09-18T08:17:00.830Z,3.10
2022-09-18T08:19:28.776Z,4.10
2022-09-18T08:21:55.353Z,3.17
2022-09-18T08:24:21.926Z,3.33
2022-09-18T08:26:48.520Z,3.30
2022-09-18T08:29:15.174Z,3.97
2022-09-18T08:31:41.831Z,3.37
2022-09-18T08:34:08.480Z,3.28
2022-09-18T08:36:36.434Z,3.53
2022-09-18T08:39:03.160Z,4.20
2022-09-18T08:41:46.955Z,4.38
2022-09-18T08:44:18.778Z,3.88
2022-09-18T08:46:50.588Z,3.63
2022-09-18T08:49:26.202Z,3.38
2022-09-18T08:52:00.119Z,3.45
2022-09-18T08:54:46.030Z,3.50
2022-09-18T08:57:17.874Z,3.80
2022-09-18T08:59:49.201Z,3.90
2022-09-18T09:02:40.295Z,3.33
2022-09-18T09:05:12.366Z,3.03
2022-09-18T09:08:03.733Z,3.03
2022-09-18T09:10:40.387Z,3.80
2022-09-18T09:13:32.274Z,2.47
2022-09-18T09:16:04.994Z,2.10
2022-09-18T09:18:38.044Z,2.20
2022-09-18T09:21:17.511Z,1.75
2022-09-18T09:26:21.802Z,1.80
2022-09-18T09:31:23.059Z,1.63
2022-09-18T09:33:54.086Z,1.20
2022-09-18T09:36:25.140Z,1.50
2022-09-18T09:38:57.939Z,1.35
2022-09-18T09:41:30.457Z,1.60
2022-09-18T09:44:04.912Z,1.70
2022-09-18T09:46:52.203Z,1.67
2022-09-18T09:49:24.181Z,1.50
2022-09-18T09:51:57.748Z,1.40
2022-09-18T09:54:25.745Z,1.60
2022-09-18T09:56:59.677Z,1.60
2022-09-18T09:59:33.017Z,1.30
2022-09-18T10:02:19.483Z,1.60
2022-09-18T10:04:52.604Z,1.60
2022-09-18T10:07:24.437Z,1.50
2022-09-18T10:09:59.179Z,1.75
2022-09-18T10:12:29.864Z,1.70
2022-09-18T10:15:03.516Z,1.77
2022-09-18T10:17:34.961Z,1.70
2022-09-18T10:20:03.471Z,1.80
2022-09-18T10:22:31.587Z,1.25
2022-09-18T10:25:04.073Z,1.38
2022-09-18T10:27:31.712Z,1.52
2022-09-18T10:29:58.305Z,1.60
2022-09-18T10:32:36.269Z,1.50
2022-09-18T10:35:34.132Z,1.40
2022-09-18T10:38:00.732Z,1.20
2022-09-18T10:40:33.961Z,1.30
2022-09-18T10:43:02.946Z,1.48
2022-09-18T10:45:33.963Z,1.52
2022-09-18T10:48:06.071Z,1.73
2022-09-18T10:50:34.492Z,1.30
2022-09-18T10:53:21.551Z,1.40
2022-09-18T10:55:53.904Z,1.40
2022-09-18T10:58:28.331Z,1.42
2022-09-18T11:01:00.010Z,1.10
2022-09-18T11:03:41.921Z,1.30
2022-09-18T11:06:15.884Z,1.40
2022-09-18T11:08:46.186Z,1.10
2022-09-18T11:11:22.534Z,1.20
2022-09-18T11:13:51.804Z,1.23
2022-09-18T11:16:23.600Z,1.05
2022-09-18T11:19:07.058Z,1.40
2022-09-18T11:21:42.442Z,1.70
2022-09-18T11:24:19.482Z,1.60
2022-09-18T11:26:50.775Z,1.45
2022-09-18T11:29:23.030Z,1.60
2022-09-18T11:31:53.290Z,1.50
2022-09-18T11:34:26.304Z,1.42
2022-09-18T11:36:57.256Z,1.70
2022-09-18T11:39:28.231Z,1.30
2022-09-18T11:41:56.231Z,1.73
2022-09-18T11:44:26.648Z,1.35
2022-09-18T11:47:23.298Z,1.00
2022-09-18T11:49:54.977Z,1.65
2022-09-18T11:52:26.624Z,1.30
2022-09-18T11:54:58.341Z,1.30
2022-09-18T11:57:30.872Z,1.52
2022-09-18T12:00:02.722Z,2.22
2022-09-18T12:02:35.771Z,1.25
2022-09-18T12:05:13.688Z,1.20
2022-09-18T12:07:47.079Z,1.20
2022-09-18T12:10:18.148Z,1.15
2022-09-18T12:12:50.324Z,1.13
2022-09-18T12:15:20.433Z,1.20
2022-09-18T12:17:50.981Z,1.25
2022-09-18T12:20:23.162Z,0.85
2022-09-18T12:22:53.335Z,0.98
2022-09-18T12:25:27.142Z,1.10
2022-09-18T12:28:03.106Z,1.08
2022-09-18T12:30:40.035Z,0.90
2022-09-18T12:33:31.128Z,1.05
2022-09-18T12:36:13.837Z,1.25
2022-09-18T12:38:53.047Z,0.82
2022-09-18T12:41:36.695Z,1.10
2022-09-18T12:44:28.248Z,1.15
2022-09-18T12:47:08.554Z,1.08
2022-09-18T12:49:51.204Z,1.00
2022-09-18T12:52:32.103Z,0.70
2022-09-18T12:55:32.007Z,0.70
2022-09-18T12:58:11.947Z,0.80
2022-09-18T13:00:43.270Z,0.90
2022-09-18T13:03:16.480Z,0.90
2022-09-18T13:05:46.827Z,0.73
2022-09-18T13:08:19.963Z,0.80
2022-09-18T13:10:48.313Z,0.70
2022-09-18T13:13:20.031Z,1.00
2022-09-18T13:15:52.191Z,1.00
2022-09-18T13:18:34.154Z,1.02
2022-09-18T13:21:05.411Z,0.80
2022-09-18T13:23:36.844Z,0.90
2022-09-18T13:26:06.521Z,1.63
2022-09-18T13:28:33.927Z,1.02
2022-09-18T13:31:24.844Z,0.95
2022-09-18T13:33:54.862Z,0.80
2022-09-18T13:36:26.433Z,0.80
2022-09-18T13:38:54.577Z,0.88
2022-09-18T13:41:21.673Z,0.82
2022-09-18T13:43:54.506Z,0.57
2022-09-18T13:46:38.069Z,0.80
2022-09-18T13:49:18.767Z,0.80
2022-09-18T13:51:45.759Z,1.20
2022-09-18T13:54:19.304Z,1.00
2022-09-18T13:57:25.461Z,0.80
2022-09-18T13:59:54.175Z,0.82
2022-09-18T14:02:30.758Z,1.05
2022-09-18T14:05:03.980Z,1.15
2022-09-18T14:07:51.522Z,0.75
2022-09-18T14:10:23.649Z,1.00
2022-09-18T14:13:06.954Z,0.80
2022-09-18T14:15:33.679Z,0.90
2022-09-18T14:18:12.133Z,0.90
2022-09-18T14:20:39.228Z,0.87
2022-09-18T14:23:39.445Z,1.10
2022-09-18T14:26:08.693Z,0.90
2022-09-18T14:31:18.806Z,1.00
2022-09-18T14:33:46.960Z,1.00
2022-09-18T14:36:14.870Z,0.90
2022-09-18T14:38:41.641Z,0.93
2022-09-18T14:41:14.281Z,1.00
2022-09-18T14:43:48.310Z,0.90
2022-09-18T14:46:18.523Z,1.00
2022-09-18T14:48:46.858Z,0.75
2022-09-18T14:51:18.627Z,1.10
2022-09-18T14:53:47.352Z,0.90
2022-09-18T14:56:17.198Z,1.15
2022-09-18T14:58:45.934Z,0.98
2022-09-18T15:01:16.898Z,1.38
2022-09-18T15:03:47.510Z,1.15
2022-09-18T15:06:18.398Z,1.05
2022-09-18T15:08:47.262Z,1.05
2022-09-18T15:11:16.164Z,0.88
2022-09-18T15:13:44.028Z,0.80
2022-09-18T15:16:18.507Z,0.95
2022-09-18T15:18:47.486Z,1.15
2022-09-18T15:21:24.015Z,1.27
2022-09-18T15:23:50.838Z,1.25
2022-09-18T15:26:18.796Z,1.30
2022-09-18T15:28:48.975Z,0.73
2022-09-18T15:31:19.254Z,1.00
2022-09-18T15:33:53.237Z,0.90
2022-09-18T15:36:25.207Z,1.23
2022-09-18T15:38:52.346Z,1.38
2022-09-18T15:41:39.347Z,1.50
2022-09-18T15:44:09.797Z,1.58
2022-09-18T15:46:37.297Z,1.48
2022-09-18T15:49:34.295Z,1.70
2022-09-18T15:52:01.291Z,1.55
2022-09-18T15:54:28.051Z,1.42
2022-09-18T15:56:56.756Z,1.52
2022-09-18T15:59:30.979Z,1.30
2022-09-18T16:01:58.966Z,1.45
2022-09-18T16:04:30.738Z,1.27
2022-09-18T16:07:01.075Z,1.10
2022-09-18T16:09:38.793Z,1.38
2022-09-18T16:12:37.033Z,1.42
2022-09-18T16:15:21.471Z,1.10
2022-09-18T16:18:01.327Z,1.13
2022-09-18T16:20:34.979Z,1.00
2022-09-18T16:23:23.040Z,1.20
2022-09-18T16:26:06.689Z,1.00
2022-09-18T16:28:35.628Z,1.25
2022-09-18T16:31:02.746Z,1.05
2022-09-18T16:33:31.128Z,0.98
2022-09-18T16:36:03.984Z,1.27
2022-09-18T16:38:30.870Z,1.40
2022-09-18T16:40:57.462Z,1.40
2022-09-18T16:43:24.220Z,1.25
2022-09-18T16:45:50.933Z,1.50
2022-09-18T16:48:18.864Z,1.40
2022-09-18T16:50:45.512Z,1.40
2022-09-18T16:53:13.974Z,1.20
2022-09-18T16:55:43.568Z,1.50
2022-09-18T16:58:12.348Z,1.35
2022-09-18T17:00:39.132Z,1.50
2022-09-18T17:03:06.886Z,1.50
2022-09-18T17:05:34.054Z,1.60
2022-09-18T17:08:00.642Z,1.23
2022-09-18T17:10:28.629Z,1.42
2022-09-18T17:12:55.222Z,1.63
2022-09-18T17:15:21.865Z,1.75
2022-09-18T17:17:48.500Z,2.08
2022-09-18T17:20:15.262Z,1.90
2022-09-18T17:22:41.836Z,1.92
2022-09-18T17:25:08.732Z,2.30
2022-09-18T17:27:41.754Z,2.17
2022-09-18T17:30:11.188Z,1.83
2022-09-18T17:32:37.813Z,2.30
2022-09-18T17:35:05.073Z,2.20
2022-09-18T17:37:31.665Z,1.58
2022-09-18T17:39:58.293Z,2.10
2022-09-18T17:42:24.986Z,3.10
2022-09-18T17:44:52.934Z,5.32
2022-09-18T17:47:19.489Z,4.28
2022-09-18T17:49:46.172Z,3.22
2022-09-18T17:52:12.813Z,3.00
2022-09-18T17:54:39.390Z,2.70
2022-09-18T17:57:05.990Z,3.30
2022-09-18T17:59:32.556Z,2.70
2022-09-18T18:02:00.559Z,2.63
2022-09-18T18:04:27.230Z,2.20
2022-09-18T18:06:53.811Z,2.45
2022-09-18T18:09:20.493Z,1.90
2022-09-18T18:11:47.114Z,2.08
2022-09-18T18:14:13.726Z,1.67
2022-09-18T18:16:40.755Z,2.42
2022-09-18T18:19:10.423Z,2.70
2022-09-18T18:21:37.635Z,3.08
2022-09-18T18:24:07.072Z,2.95
2022-09-18T18:29:00.079Z,3.17
2022-09-18T18:31:26.678Z,3.40
2022-09-18T18:33:54.487Z,3.70
2022-09-18T18:36:24.280Z,3.53
2022-09-18T18:38:52.912Z,3.40
2022-09-18T18:41:21.731Z,3.33
2022-09-18T18:43:51.147Z,3.80
2022-09-18T18:48:44.672Z,3.92
2022-09-18T18:51:15.350Z,3.30
2022-09-18T18:53:44.381Z,3.25
2022-09-18T18:56:12.996Z,3.80
2022-09-18T18:58:40.002Z,3.20
2022-09-18T19:01:08.137Z,3.80
2022-09-18T19:03:39.858Z,3.60
2022-09-18T19:06:06.841Z,3.60
2022-09-18T19:08:33.848Z,3.15
2022-09-18T19:11:02.504Z,3.47
2022-09-18T19:13:29.886Z,3.20
2022-09-18T19:15:56.793Z,3.35
2022-09-18T19:18:25.734Z,3.10
2022-09-18T19:20:57.260Z,3.08
2022-09-18T19:23:24.046Z,3.05
2022-09-18T19:25:50.999Z,3.10
2022-09-18T19:28:19.079Z,3.50
2022-09-18T19:30:45.728Z,3.15
2022-09-18T19:33:14.273Z,3.08
2022-09-18T19:35:41.251Z,3.17
2022-09-18T19:38:07.864Z,2.95
2022-09-18T19:40:38.119Z,3.20
2022-09-18T19:43:09.094Z,3.20
2022-09-18T19:45:37.228Z,2.63
2022-09-18T19:48:07.435Z,3.10
2022-09-18T19:50:38.047Z,3.28
2022-09-18T19:53:04.814Z,3.20
2022-09-18T19:55:31.516Z,3.10
2022-09-18T19:57:59.309Z,3.75
2022-09-18T20:00:26.689Z,3.55
2022-09-18T20:02:57.304Z,3.90
2022-09-18T20:05:24.066Z,2.90
2022-09-18T20:07:50.688Z,2.85
2022-09-18T20:10:17.512Z,2.97
2022-09-18T20:12:44.182Z,3.53
2022-09-18T20:15:11.834Z,2.80
2022-09-18T20:17:39.180Z,3.55
2022-09-18T20:20:08.813Z,3.15
2022-09-18T20:22:36.376Z,3.30
2022-09-18T20:25:03.549Z,3.25
2022-09-18T20:27:35.397Z,2.92
2022-09-18T20:30:02.116Z,3.35
2022-09-18T20:32:28.968Z,3.10
2022-09-18T20:34:55.838Z,3.17
2022-09-18T20:37:24.115Z,3.05
2022-09-18T20:39:50.766Z,3.45
2022-09-18T20:42:17.463Z,3.92
2022-09-18T20:44:44.134Z,3.92
2022-09-18T20:47:10.760Z,3.58
2022-09-18T20:49:37.562Z,4.13
2022-09-18T20:52:04.263Z,3.50
2022-09-18T20:54:32.341Z,3.22
2022-09-18T20:56:58.988Z,3.92
2022-09-18T20:59:25.727Z,3.30
2022-09-18T21:01:52.445Z,3.10
2022-09-18T21:04:20.772Z,3.65
2022-09-18T21:06:48.852Z,3.42
2022-09-18T21:09:15.570Z,2.85
2022-09-18T21:11:44.108Z,3.45
2022-09-18T21:14:12.512Z,3.60
2022-09-18T21:16:40.174Z,3.00
2022-09-18T21:19:06.868Z,3.35
2022-09-18T21:21:34.577Z,3.10
2022-09-18T21:24:02.053Z,3.10
2022-09-18T21:26:30.154Z,3.42
2022-09-18T21:29:00.524Z,3.70
2022-09-18T21:31:28.035Z,3.38
2022-09-18T21:33:54.735Z,3.35
2022-09-18T21:36:22.676Z,3.40
2022-09-18T21:38:59.631Z,3.03
2022-09-18T21:41:26.436Z,3.03
2022-09-18T21:43:54.058Z,3.22
2022-09-18T21:46:22.935Z,3.25
2022-09-18T21:48:50.553Z,2.72
2022-09-18T21:51:17.251Z,2.15
2022-09-18T21:53:44.789Z,2.80
2022-09-18T21:56:14.007Z,3.17
2022-09-18T21:58:40.904Z,2.60
2022-09-18T22:01:09.065Z,2.42
2022-09-18T22:03:38.156Z,2.17
2022-09-18T22:06:05.119Z,2.47
2022-09-18T22:08:32.120Z,2.40
2022-09-18T22:11:02.867Z,2.33
2022-09-18T22:13:30.551Z,2.28
2022-09-18T22:15:57.300Z,2.40
2022-09-18T22:18:24.056Z,2.10
2022-09-18T22:20:52.119Z,2.75
2022-09-18T22:23:18.808Z,2.53
2022-09-18T22:25:45.549Z,2.45
2022-09-18T22:28:12.160Z,3.10
2022-09-18T22:30:38.977Z,2.83
2022-09-18T22:33:05.612Z,3.03
2022-09-18T22:35:32.794Z,3.28
2022-09-18T22:38:00.819Z,2.95
2022-09-18T22:40:27.541Z,2.88
2022-09-18T22:42:55.078Z,2.83
2022-09-18T22:45:21.820Z,3.08
2022-09-18T22:47:48.485Z,3.10
2022-09-18T22:50:15.193Z,3.40
2022-09-18T22:52:41.852Z,3.67
2022-09-18T22:55:10.014Z,3.67
2022-09-18T22:57:36.650Z,3.50
2022-09-18T23:00:04.556Z,4.10
2022-09-18T23:02:31.313Z,3.53
2022-09-18T23:04:58.236Z,4.00
2022-09-18T23:07:25.096Z,3.15
2022-09-18T23:09:51.796Z,3.70
2022-09-18T23:12:19.746Z,3.35
2022-09-18T23:14:46.322Z,3.42
2022-09-18T23:17:12.964Z,3.28
2022-09-18T23:19:39.601Z,3.30
2022-09-18T23:22:06.212Z,2.88
2022-09-18T23:24:32.871Z,2.55
2022-09-18T23:26:59.692Z,3.03
2022-09-18T23:29:28.393Z,2.80
2022-09-18T23:31:55.478Z,3.08
2022-09-18T23:34:25.025Z,3.30
2022-09-18T23:36:54.060Z,2.72
2022-09-18T23:39:23.087Z,2.70
2022-09-18T23:41:51.133Z,3.10
2022-09-18T23:44:19.993Z,2.65
2022-09-18T23:46:48.627Z,2.80
2022-09-18T23:49:16.766Z,3.07
2022-09-18T23:51:44.921Z,2.90
2022-09-18T23:54:15.329Z,2.42
2022-09-18T23:56:42.009Z,3.08
2022-09-18T23:59:10.279Z,2.83
